Grapefield, Virginia
Current Conditions -  °F | °C
As of 8:52 PM on Saturday 20 Dec 2014 (Local Time) from KBLF Reporting Station
Light Snow Light Snow  
Wind Chill: 33°   Ceiling: 3200
Heat Index: 33°   Visibility: 4mi
Dew Point: 30°   Wind: 3mph
Humidity: 89%   Direction: 280°W
Pressure: 30.18"   Gusts: NA
Location:  37.1593°N, 81.1986°W
Report Text: KBLF 210152Z AUTO 28003KT 4SM -SN BR SCT003 OVC032 01/M01 A3018 RMK AO2 SLP240 P0000 T00061011
Loading
Personal Weather Stations






























Interactive Weather Map New forecast layout! Learn more

10-Day Weather Forecast

Advertisements
Track Severe Weather on mobile